Time;durP1;ratioP1;P1;durP2;ratioP2;P2;SDS_P1;SDS_P2;PMS_P1;PMS_P2;Temp;Humidity;BMP_temperature;BMP_pressure;BME280_temperature;BME280_humidity;BME280_pressure;Samples;Min_cycle;Max_cycle;Signal;HPM_P1;HPM_P2
2022/04/27 00:01:17;;;;;;;13.15;3.70;;;;;;;;;;5052874;28;20024;-69
2022/04/27 00:03:43;;;;;;;11.68;3.30;;;;;;;;;;5052981;28;20029;-71
2022/04/27 00:06:09;;;;;;;8.63;3.45;;;;;;;;;;5052341;28;20036;-70
2022/04/27 00:08:35;;;;;;;11.57;3.20;;;;;;;;;;5053140;28;20029;-72
2022/04/27 00:11:00;;;;;;;9.88;2.78;;;;;;;;;;5058243;28;20028;-70
2022/04/27 00:13:26;;;;;;;12.25;3.30;;;;;;;;;;5062396;28;20065;-71
2022/04/27 00:15:51;;;;;;;11.38;3.00;;;;;;;;;;5056582;28;20502;-71
2022/04/27 00:18:17;;;;;;;8.48;3.20;;;;;;;;;;5052791;28;20067;-70
2022/04/27 00:20:42;;;;;;;13.98;3.58;;;;;;;;;;5052681;28;20116;-69
2022/04/27 00:23:08;;;;;;;15.90;3.50;;;;;;;;;;5052867;28;20635;-70
2022/04/27 00:25:34;;;;;;;15.07;2.92;;;;;;;;;;5052287;28;20036;-71
2022/04/27 00:27:59;;;;;;;9.15;2.97;;;;;;;;;;5052658;28;20035;-71
2022/04/27 00:30:25;;;;;;;9.77;3.13;;;;;;;;;;5052338;28;20112;-70
2022/04/27 00:32:50;;;;;;;9.35;2.95;;;;;;;;;;5052642;28;20108;-70
2022/04/27 00:35:16;;;;;;;14.18;3.20;;;;;;;;;;5052003;28;20728;-70
2022/04/27 00:37:41;;;;;;;13.15;2.92;;;;;;;;;;5052466;28;20029;-70
2022/04/27 00:40:07;;;;;;;11.25;3.50;;;;;;;;;;5052380;28;20025;-70
2022/04/27 00:42:33;;;;;;;17.42;3.13;;;;;;;;;;5052632;28;20021;-70
2022/04/27 00:44:58;;;;;;;9.57;2.90;;;;;;;;;;5052035;28;20071;-70
2022/04/27 00:47:23;;;;;;;10.48;3.08;;;;;;;;;;5051962;28;20032;-70
2022/04/27 00:49:51;;;;;;;10.98;3.20;;;;;;;;;;5051871;28;20031;-70
2022/04/27 00:52:18;;;;;;;9.88;3.22;;;;;;;;;;5053050;28;20050;-70
2022/04/27 00:54:46;;;;;;;10.02;3.17;;;;;;;;;;5058951;28;20025;-70
2022/04/27 00:57:12;;;;;;;9.80;3.15;;;;;;;;;;5061723;28;20037;-70
2022/04/27 00:59:39;;;;;;;10.75;2.97;;;;;;;;;;5061239;28;20037;-70
2022/04/27 01:02:05;;;;;;;9.20;3.13;;;;;;;;;;5061823;28;20240;-70
2022/04/27 01:04:33;;;;;;;8.45;2.78;;;;;;;;;;5055786;28;20615;-71
2022/04/27 01:06:58;;;;;;;8.90;3.17;;;;;;;;;;5051404;28;20025;-71
2022/04/27 01:09:25;;;;;;;14.65;3.47;;;;;;;;;;5051976;28;20549;-69
2022/04/27 01:11:51;;;;;;;12.73;3.75;;;;;;;;;;5051724;28;20500;-70
2022/04/27 01:14:16;;;;;;;8.40;3.53;;;;;;;;;;5051950;28;20029;-70
2022/04/27 01:16:42;;;;;;;12.93;3.97;;;;;;;;;;5051196;28;20389;-68
2022/04/27 01:19:07;;;;;;;11.93;3.78;;;;;;;;;;5051640;28;20100;-70
2022/04/27 01:21:33;;;;;;;13.80;4.32;;;;;;;;;;5056771;28;20028;-70
2022/04/27 01:23:59;;;;;;;9.98;3.90;;;;;;;;;;5061166;28;20041;-70
2022/04/27 01:26:24;;;;;;;13.10;4.45;;;;;;;;;;5060563;28;20025;-70
2022/04/27 01:28:50;;;;;;;9.32;3.90;;;;;;;;;;5060612;28;20021;-72
2022/04/27 01:31:16;;;;;;;9.60;3.70;;;;;;;;;;5060660;28;20029;-69
2022/04/27 01:33:42;;;;;;;12.68;4.07;;;;;;;;;;5061606;28;20043;-70
2022/04/27 01:36:09;;;;;;;9.38;3.90;;;;;;;;;;5060756;28;20055;-71
2022/04/27 01:38:39;;;;;;;9.23;3.70;;;;;;;;;;5061906;28;20024;-70
2022/04/27 01:41:05;;;;;;;9.67;4.07;;;;;;;;;;5060571;28;20076;-69
2022/04/27 01:43:32;;;;;;;10.38;4.13;;;;;;;;;;5061503;28;20036;-70
2022/04/27 01:45:58;;;;;;;13.45;4.20;;;;;;;;;;5060600;28;20344;-71
2022/04/27 01:48:24;;;;;;;8.65;3.80;;;;;;;;;;5061247;28;20044;-71
2022/04/27 01:50:49;;;;;;;9.60;3.75;;;;;;;;;;5061278;28;20025;-70
2022/04/27 01:55:59;;;;;;;9.90;4.00;;;;;;;;;;5060684;28;20039;-72
2022/04/27 01:58:25;;;;;;;13.70;4.10;;;;;;;;;;5060608;28;20048;-71
2022/04/27 02:00:51;;;;;;;11.75;3.95;;;;;;;;;;5060954;28;20048;-69
2022/04/27 02:03:18;;;;;;;11.25;4.07;;;;;;;;;;5060699;28;20052;-69
2022/04/27 02:05:47;;;;;;;12.65;4.20;;;;;;;;;;5060728;28;20032;-71
2022/04/27 02:08:13;;;;;;;12.25;4.30;;;;;;;;;;5060676;28;20324;-69
2022/04/27 02:10:39;;;;;;;9.95;4.15;;;;;;;;;;5060198;28;20044;-69
2022/04/27 02:13:06;;;;;;;9.20;3.75;;;;;;;;;;5060418;28;20033;-68
2022/04/27 02:15:32;;;;;;;11.50;4.10;;;;;;;;;;5060781;28;20139;-69
2022/04/27 02:18:01;;;;;;;11.00;4.25;;;;;;;;;;5059909;28;20044;-72
2022/04/27 02:20:27;;;;;;;11.50;4.05;;;;;;;;;;5060237;28;20024;-68
2022/04/27 02:22:53;;;;;;;10.02;3.40;;;;;;;;;;5060358;28;20029;-69
2022/04/27 02:25:20;;;;;;;10.43;3.72;;;;;;;;;;5050905;28;20094;-70
2022/04/27 02:27:46;;;;;;;12.70;4.30;;;;;;;;;;5049928;28;20033;-70
2022/04/27 02:30:12;;;;;;;9.65;3.63;;;;;;;;;;5050263;28;20021;-71
2022/04/27 02:32:38;;;;;;;9.02;3.55;;;;;;;;;;5049771;28;20025;-68
2022/04/27 02:35:06;;;;;;;9.88;4.03;;;;;;;;;;5056907;28;20029;-71
2022/04/27 02:37:32;;;;;;;8.57;3.58;;;;;;;;;;5059648;28;20367;-68
2022/04/27 02:39:58;;;;;;;8.18;3.75;;;;;;;;;;5060712;28;20052;-70
2022/04/27 02:42:23;;;;;;;9.48;4.05;;;;;;;;;;5059846;28;20405;-70
2022/04/27 02:44:49;;;;;;;9.05;3.60;;;;;;;;;;5059996;28;20055;-69
2022/04/27 02:47:15;;;;;;;9.40;3.38;;;;;;;;;;5060021;28;20029;-70
2022/04/27 02:52:25;;;;;;;9.32;3.53;;;;;;;;;;5059853;28;20075;-69
2022/04/27 02:54:50;;;;;;;9.70;3.70;;;;;;;;;;5059939;28;20345;-70
2022/04/27 02:57:16;;;;;;;9.32;3.72;;;;;;;;;;5059880;28;20025;-70
2022/04/27 02:59:45;;;;;;;9.88;3.42;;;;;;;;;;5060459;28;20351;-69
2022/04/27 03:02:10;;;;;;;8.77;3.45;;;;;;;;;;5059815;28;20027;-70
2022/04/27 03:04:36;;;;;;;10.82;3.58;;;;;;;;;;5059930;28;20033;-70
2022/04/27 03:07:03;;;;;;;8.40;3.70;;;;;;;;;;5050301;28;20029;-70
2022/04/27 03:09:29;;;;;;;17.98;5.32;;;;;;;;;;5049825;28;20565;-68
2022/04/27 03:11:55;;;;;;;15.20;4.50;;;;;;;;;;5049403;28;20634;-69
2022/04/27 03:14:20;;;;;;;11.00;4.28;;;;;;;;;;5049739;28;20110;-71
2022/04/27 03:16:47;;;;;;;10.55;4.00;;;;;;;;;;5049428;28;20545;-70
2022/04/27 03:19:12;;;;;;;8.98;3.83;;;;;;;;;;5049825;28;20600;-68
2022/04/27 03:21:38;;;;;;;11.20;4.60;;;;;;;;;;5049506;28;20081;-68
2022/04/27 03:24:04;;;;;;;16.60;4.45;;;;;;;;;;5051600;28;20025;-72
2022/04/27 03:26:30;;;;;;;10.27;4.22;;;;;;;;;;5053249;28;20028;-71
2022/04/27 03:28:55;;;;;;;10.05;4.28;;;;;;;;;;5053629;28;20094;-68
2022/04/27 03:31:21;;;;;;;10.10;4.38;;;;;;;;;;5053543;28;20021;-70
2022/04/27 03:33:47;;;;;;;9.65;4.35;;;;;;;;;;5053416;28;20112;-70
2022/04/27 03:36:12;;;;;;;11.95;4.32;;;;;;;;;;5053387;28;20059;-71
2022/04/27 03:38:38;;;;;;;9.00;3.97;;;;;;;;;;5052859;28;20025;-71
2022/04/27 03:41:05;;;;;;;9.52;3.80;;;;;;;;;;5053228;28;20041;-69
2022/04/27 03:43:31;;;;;;;8.35;4.22;;;;;;;;;;5052946;28;20025;-71
2022/04/27 03:45:56;;;;;;;10.10;4.18;;;;;;;;;;5053264;28;20029;-68
2022/04/27 03:48:22;;;;;;;9.05;4.28;;;;;;;;;;5052801;28;20025;-67
2022/04/27 03:50:48;;;;;;;10.13;4.30;;;;;;;;;;5053295;28;20027;-71
2022/04/27 03:53:13;;;;;;;15.30;4.22;;;;;;;;;;5058371;28;20021;-68
2022/04/27 03:55:39;;;;;;;10.50;4.13;;;;;;;;;;5058767;28;20029;-67
2022/04/27 03:58:06;;;;;;;7.85;3.88;;;;;;;;;;5052587;28;20031;-71
2022/04/27 04:00:32;;;;;;;8.95;4.43;;;;;;;;;;5052926;28;20028;-71
2022/04/27 04:03:02;;;;;;;6.57;3.92;;;;;;;;;;5055116;28;20033;-70
2022/04/27 04:05:29;;;;;;;11.13;4.40;;;;;;;;;;5062758;28;20040;-70
2022/04/27 04:07:55;;;;;;;9.73;4.10;;;;;;;;;;5062352;28;20100;-71
2022/04/27 04:10:21;;;;;;;10.45;4.18;;;;;;;;;;5063359;28;20224;-70
2022/04/27 04:12:47;;;;;;;11.98;4.70;;;;;;;;;;5058007;28;20359;-69
2022/04/27 04:15:13;;;;;;;12.15;4.13;;;;;;;;;;5054759;28;20221;-67
2022/04/27 04:17:44;;;;;;;11.07;4.22;;;;;;;;;;5053888;28;20036;-71
2022/04/27 04:20:13;;;;;;;10.70;4.10;;;;;;;;;;5062632;28;20317;-68
2022/04/27 04:22:39;;;;;;;10.57;4.20;;;;;;;;;;5052933;28;20108;-69
2022/04/27 04:30:33;;;;;;;14.43;4.65;;;;;;;;;;5053998;28;20051;-70
2022/04/27 04:32:58;;;;;;;15.13;4.18;;;;;;;;;;5062826;28;20029;-70
2022/04/27 04:35:24;;;;;;;9.30;4.15;;;;;;;;;;5054631;28;20040;-70
2022/04/27 04:37:50;;;;;;;10.60;4.30;;;;;;;;;;5059128;28;20024;-69
2022/04/27 04:40:15;;;;;;;10.52;4.40;;;;;;;;;;5054815;28;20057;-72
2022/04/27 04:42:41;;;;;;;10.52;4.13;;;;;;;;;;5055174;28;20021;-71
2022/04/27 04:45:07;;;;;;;8.18;4.30;;;;;;;;;;5056698;28;20029;-69
2022/04/27 04:47:33;;;;;;;12.02;4.43;;;;;;;;;;5052407;28;20215;-69
2022/04/27 04:49:58;;;;;;;12.45;4.75;;;;;;;;;;5053919;28;20575;-69
2022/04/27 04:52:24;;;;;;;10.75;3.97;;;;;;;;;;5053006;28;20029;-68
2022/04/27 04:54:49;;;;;;;9.27;4.32;;;;;;;;;;5058999;28;20295;-66
2022/04/27 04:57:15;;;;;;;12.02;4.50;;;;;;;;;;5056409;28;20524;-68
2022/04/27 04:59:41;;;;;;;12.90;4.20;;;;;;;;;;5055856;28;20027;-70
2022/04/27 05:02:06;;;;;;;11.52;4.10;;;;;;;;;;5054015;28;20147;-70
2022/04/27 05:04:32;;;;;;;10.77;3.88;;;;;;;;;;5051832;28;20079;-70
2022/04/27 05:06:58;;;;;;;13.18;4.03;;;;;;;;;;5052762;28;20033;-69
2022/04/27 05:09:23;;;;;;;10.45;4.38;;;;;;;;;;5054646;28;20028;-69
2022/04/27 05:11:49;;;;;;;11.77;5.38;;;;;;;;;;5054454;28;20147;-68
2022/04/27 05:14:14;;;;;;;12.23;4.70;;;;;;;;;;5055307;28;20033;-69
2022/04/27 05:16:40;;;;;;;12.52;4.57;;;;;;;;;;5055336;28;20032;-69
2022/04/27 05:19:06;;;;;;;11.85;4.15;;;;;;;;;;5051672;28;20040;-70
2022/04/27 05:21:31;;;;;;;12.55;4.55;;;;;;;;;;5056750;28;20028;-70
2022/04/27 05:23:57;;;;;;;10.45;4.45;;;;;;;;;;5054689;28;20033;-69
2022/04/27 05:26:23;;;;;;;11.93;4.22;;;;;;;;;;5051985;28;20100;-69
2022/04/27 05:34:17;;;;;;;11.45;4.70;;;;;;;;;;5055868;28;20074;-70
2022/04/27 05:36:42;;;;;;;10.95;4.40;;;;;;;;;;5055663;28;20025;-71
2022/04/27 05:39:08;;;;;;;11.77;4.20;;;;;;;;;;5059513;28;20060;-72
2022/04/27 05:41:34;;;;;;;13.05;4.15;;;;;;;;;;5060844;28;20112;-71
2022/04/27 05:44:03;;;;;;;16.02;4.78;;;;;;;;;;5055691;28;20036;-72
2022/04/27 05:46:29;;;;;;;8.63;4.57;;;;;;;;;;5051039;28;20063;-71
2022/04/27 05:48:55;;;;;;;13.98;4.60;;;;;;;;;;5057958;28;20024;-71
2022/04/27 05:51:20;;;;;;;6.30;3.60;;;;;;;;;;5057432;28;20131;-79
2022/04/27 05:53:46;;;;;;;9.98;4.20;;;;;;;;;;5058711;28;20025;-73
2022/04/27 05:56:12;;;;;;;10.70;4.18;;;;;;;;;;5053315;28;20017;-71
2022/04/27 05:58:38;;;;;;;11.65;3.80;;;;;;;;;;5057519;28;20497;-72
2022/04/27 06:01:04;;;;;;;8.18;3.40;;;;;;;;;;5058189;28;20104;-70
2022/04/27 06:03:30;;;;;;;10.48;3.85;;;;;;;;;;5055099;28;20029;-72
2022/04/27 06:05:56;;;;;;;11.60;3.97;;;;;;;;;;5053303;28;20029;-72
2022/04/27 06:08:22;;;;;;;11.27;3.92;;;;;;;;;;5055504;28;20033;-70
2022/04/27 06:10:47;;;;;;;11.80;3.83;;;;;;;;;;5057436;28;20021;-73
2022/04/27 06:13:13;;;;;;;11.15;3.70;;;;;;;;;;5059530;28;20221;-71
2022/04/27 06:15:39;;;;;;;6.63;3.40;;;;;;;;;;5058649;28;20033;-74
2022/04/27 06:18:05;;;;;;;8.55;3.70;;;;;;;;;;5060462;28;20321;-75
2022/04/27 06:20:31;;;;;;;7.15;3.35;;;;;;;;;;5058350;28;20098;-74
2022/04/27 06:22:57;;;;;;;9.90;3.53;;;;;;;;;;5055255;28;20106;-74
2022/04/27 06:25:25;;;;;;;9.82;3.80;;;;;;;;;;5060636;28;20040;-72
2022/04/27 06:27:51;;;;;;;8.30;3.53;;;;;;;;;;5060278;28;20029;-73
2022/04/27 06:30:17;;;;;;;7.45;3.35;;;;;;;;;;5058375;28;20088;-74
2022/04/27 06:32:43;;;;;;;9.32;3.70;;;;;;;;;;5059815;28;20025;-70
2022/04/27 06:35:13;;;;;;;13.75;3.58;;;;;;;;;;5055709;28;20035;-73
2022/04/27 06:37:42;;;;;;;8.60;3.40;;;;;;;;;;5060107;28;20025;-73
2022/04/27 06:40:08;;;;;;;11.18;3.80;;;;;;;;;;5078518;28;20666;-74
2022/04/27 06:42:35;;;;;;;8.65;3.55;;;;;;;;;;5067442;28;20032;-72
2022/04/27 06:45:04;;;;;;;10.55;3.78;;;;;;;;;;5079939;28;20032;-72
2022/04/27 06:47:30;;;;;;;13.35;4.15;;;;;;;;;;5079933;28;20040;-73
2022/04/27 06:49:56;;;;;;;10.95;3.70;;;;;;;;;;5079479;28;20040;-71
2022/04/27 06:52:22;;;;;;;11.90;3.90;;;;;;;;;;5073197;28;20028;-72
2022/04/27 06:54:47;;;;;;;10.27;3.80;;;;;;;;;;5069859;28;20041;-71
2022/04/27 06:57:13;;;;;;;9.07;4.15;;;;;;;;;;5078638;28;20082;-71
2022/04/27 06:59:38;;;;;;;13.35;3.75;;;;;;;;;;5076039;28;20021;-71
2022/04/27 07:02:05;;;;;;;11.25;4.07;;;;;;;;;;5077460;28;20020;-72
2022/04/27 07:04:34;;;;;;;8.07;4.05;;;;;;;;;;5079638;28;20044;-71
2022/04/27 07:07:01;;;;;;;12.48;3.55;;;;;;;;;;5079883;28;20033;-73
2022/04/27 07:09:26;;;;;;;8.35;3.95;;;;;;;;;;5079794;28;20032;-74
2022/04/27 07:11:52;;;;;;;8.93;3.70;;;;;;;;;;5080141;28;20173;-72
2022/04/27 07:14:19;;;;;;;11.35;3.80;;;;;;;;;;5079459;28;20206;-74
2022/04/27 07:16:46;;;;;;;8.95;3.92;;;;;;;;;;5080089;28;20028;-72
2022/04/27 07:19:12;;;;;;;8.60;3.50;;;;;;;;;;5079447;28;20051;-71
2022/04/27 07:21:39;;;;;;;6.90;3.30;;;;;;;;;;5079634;28;20032;-73
2022/04/27 07:24:05;;;;;;;7.57;3.40;;;;;;;;;;5079657;28;20040;-73
2022/04/27 07:26:31;;;;;;;8.32;3.63;;;;;;;;;;5079227;28;20039;-74
2022/04/27 07:28:57;;;;;;;9.63;3.40;;;;;;;;;;5079440;28;20032;-74
2022/04/27 07:31:23;;;;;;;8.25;3.25;;;;;;;;;;5080069;28;20155;-72
2022/04/27 07:33:49;;;;;;;9.27;3.95;;;;;;;;;;5080062;28;20362;-74
2022/04/27 07:36:14;;;;;;;9.52;3.80;;;;;;;;;;5075453;28;20460;-73
2022/04/27 07:38:40;;;;;;;8.15;3.65;;;;;;;;;;5078860;28;20088;-74
2022/04/27 07:41:07;;;;;;;7.78;3.70;;;;;;;;;;5078445;28;20052;-72
2022/04/27 07:43:32;;;;;;;6.20;3.33;;;;;;;;;;5072582;28;20134;-72
2022/04/27 07:45:58;;;;;;;9.48;3.60;;;;;;;;;;5075393;28;20114;-73
2022/04/27 07:48:24;;;;;;;8.20;3.75;;;;;;;;;;5071324;28;20029;-72
2022/04/27 07:50:50;;;;;;;8.18;3.92;;;;;;;;;;5069030;28;20028;-70
2022/04/27 07:53:16;;;;;;;7.80;3.65;;;;;;;;;;5051752;28;20029;-76
2022/04/27 07:55:41;;;;;;;12.43;3.50;;;;;;;;;;5069322;28;20024;-73
2022/04/27 07:58:07;;;;;;;9.30;3.78;;;;;;;;;;5069549;28;20028;-77
2022/04/27 08:00:33;;;;;;;10.32;4.18;;;;;;;;;;5068567;28;20393;-73
2022/04/27 08:02:58;;;;;;;9.43;3.50;;;;;;;;;;5069329;28;20454;-71
2022/04/27 08:05:24;;;;;;;7.25;3.75;;;;;;;;;;5069056;28;20024;-73
2022/04/27 08:07:50;;;;;;;11.82;3.97;;;;;;;;;;5069498;28;20028;-70
2022/04/27 08:10:17;;;;;;;9.38;3.85;;;;;;;;;;5071378;28;20052;-74
2022/04/27 08:12:46;;;;;;;5.53;3.25;;;;;;;;;;5073073;28;20032;-72
2022/04/27 08:15:14;;;;;;;10.75;3.85;;;;;;;;;;5075486;28;20032;-70
2022/04/27 08:18:09;;;;;;;7.18;3.35;;;;;;;;;;5076447;28;20089;-70
2022/04/27 08:23:23;;;;;;;7.07;3.05;;;;;;;;;;5073079;28;20082;-70
2022/04/27 08:25:49;;;;;;;7.40;2.85;;;;;;;;;;5072723;28;20032;-75
2022/04/27 08:28:17;;;;;;;8.10;3.08;;;;;;;;;;5072884;28;20508;-69
2022/04/27 08:30:45;;;;;;;6.07;3.10;;;;;;;;;;5072216;28;20036;-74
2022/04/27 08:33:12;;;;;;;7.43;2.92;;;;;;;;;;5072931;28;20086;-72
2022/04/27 08:35:38;;;;;;;8.85;3.35;;;;;;;;;;5072249;28;20028;-71
2022/04/27 08:38:06;;;;;;;7.70;2.97;;;;;;;;;;5073060;28;20111;-72
2022/04/27 08:40:34;;;;;;;8.35;3.10;;;;;;;;;;5071936;28;20045;-73
2022/04/27 08:43:02;;;;;;;9.35;3.22;;;;;;;;;;5072722;28;20046;-72
2022/04/27 08:45:29;;;;;;;6.13;3.35;;;;;;;;;;5072308;28;20043;-71
2022/04/27 08:47:56;;;;;;;10.13;3.08;;;;;;;;;;5072587;28;20418;-72
2022/04/27 08:50:26;;;;;;;9.77;3.30;;;;;;;;;;5072322;28;20064;-73
2022/04/27 08:52:52;;;;;;;6.32;3.10;;;;;;;;;;5072240;28;20028;-73
2022/04/27 08:55:19;;;;;;;8.82;3.33;;;;;;;;;;5072078;28;20037;-73
2022/04/27 08:57:45;;;;;;;7.60;3.30;;;;;;;;;;5072081;28;20036;-74
2022/04/27 09:00:22;;;;;;;8.38;3.65;;;;;;;;;;5072004;28;20028;-74
2022/04/27 09:02:52;;;;;;;8.60;3.10;;;;;;;;;;5072016;28;20130;-75
2022/04/27 09:05:22;;;;;;;5.30;2.85;;;;;;;;;;5072025;28;20032;-73
2022/04/27 09:07:58;;;;;;;8.60;2.97;;;;;;;;;;5072082;28;20037;-73
2022/04/27 09:10:25;;;;;;;8.95;3.20;;;;;;;;;;5071610;28;20273;-70
2022/04/27 09:12:57;;;;;;;7.63;2.83;;;;;;;;;;5071797;28;20032;-72
2022/04/27 09:15:26;;;;;;;9.80;3.00;;;;;;;;;;5071913;28;20027;-70
2022/04/27 09:20:48;;;;;;;6.32;2.88;;;;;;;;;;5071000;28;20036;-70
2022/04/27 09:23:37;;;;;;;8.68;3.30;;;;;;;;;;5071699;28;20025;-72
2022/04/27 09:26:19;;;;;;;9.88;2.83;;;;;;;;;;5071264;28;20021;-72
2022/04/27 09:28:53;;;;;;;10.63;2.80;;;;;;;;;;5053643;28;20031;-72
2022/04/27 09:31:32;;;;;;;9.90;2.58;;;;;;;;;;5071101;28;20074;-75
2022/04/27 09:34:27;;;;;;;8.68;2.80;;;;;;;;;;5071880;28;20039;-74
2022/04/27 09:36:59;;;;;;;7.78;2.80;;;;;;;;;;5071083;28;20158;-71
2022/04/27 09:39:25;;;;;;;7.25;2.83;;;;;;;;;;5071410;28;20078;-72
2022/04/27 09:41:51;;;;;;;7.10;2.80;;;;;;;;;;5070889;28;20090;-74
2022/04/27 09:44:33;;;;;;;8.65;2.58;;;;;;;;;;5071331;28;20032;-72
2022/04/27 09:47:03;;;;;;;7.25;2.75;;;;;;;;;;5070803;28;20032;-71
2022/04/27 09:49:32;;;;;;;7.60;2.88;;;;;;;;;;5071038;28;20491;-72
2022/04/27 09:52:00;;;;;;;7.32;2.55;;;;;;;;;;5071242;28;20038;-72
2022/04/27 09:54:28;;;;;;;7.28;2.58;;;;;;;;;;5071412;28;20029;-70
2022/04/27 09:56:56;;;;;;;7.80;2.42;;;;;;;;;;5070772;28;20044;-73
2022/04/27 09:59:27;;;;;;;8.18;2.80;;;;;;;;;;5070613;28;20032;-72
2022/04/27 10:01:59;;;;;;;9.57;3.00;;;;;;;;;;5070723;28;20106;-73
2022/04/27 10:04:29;;;;;;;5.78;2.42;;;;;;;;;;5071090;28;20054;-73
2022/04/27 10:07:01;;;;;;;7.55;2.78;;;;;;;;;;5070750;28;20056;-71
2022/04/27 10:09:28;;;;;;;6.78;2.47;;;;;;;;;;5070716;28;20041;-73
2022/04/27 10:11:55;;;;;;;8.38;2.63;;;;;;;;;;5070402;28;20031;-72
2022/04/27 10:14:22;;;;;;;7.35;2.70;;;;;;;;;;5070615;28;20030;-72
2022/04/27 10:16:51;;;;;;;8.95;2.80;;;;;;;;;;5070488;28;20504;-73
2022/04/27 10:19:17;;;;;;;7.47;2.30;;;;;;;;;;5070562;28;20024;-69
2022/04/27 10:21:57;;;;;;;7.57;2.63;;;;;;;;;;5070520;28;20455;-70
2022/04/27 10:24:37;;;;;;;9.60;2.63;;;;;;;;;;5070497;28;20032;-72
2022/04/27 10:27:20;;;;;;;6.70;3.30;;;;;;;;;;5070521;28;20479;-71
2022/04/27 10:29:54;;;;;;;6.78;2.40;;;;;;;;;;5070383;28;20099;-73
2022/04/27 10:32:46;;;;;;;7.35;2.70;;;;;;;;;;5070544;28;20059;-72
2022/04/27 10:35:12;;;;;;;5.60;2.45;;;;;;;;;;5057367;28;20530;-75
2022/04/27 10:37:54;;;;;;;6.05;2.55;;;;;;;;;;5070749;28;20021;-73
2022/04/27 10:40:37;;;;;;;8.10;2.60;;;;;;;;;;5070107;28;20021;-74
2022/04/27 10:43:15;;;;;;;10.30;2.25;;;;;;;;;;5070231;28;20052;-73
2022/04/27 10:45:43;;;;;;;5.82;2.22;;;;;;;;;;5070448;28;20028;-70
2022/04/27 10:48:23;;;;;;;6.57;2.88;;;;;;;;;;5069968;28;20066;-71
2022/04/27 10:50:57;;;;;;;10.10;2.90;;;;;;;;;;5070054;28;20025;-73
2022/04/27 10:53:25;;;;;;;7.45;2.47;;;;;;;;;;5069784;28;20491;-70
2022/04/27 10:55:56;;;;;;;9.45;2.78;;;;;;;;;;5069962;28;20077;-72
2022/04/27 10:58:37;;;;;;;6.45;2.53;;;;;;;;;;5069860;28;20107;-71
2022/04/27 11:01:11;;;;;;;10.90;2.75;;;;;;;;;;5069529;28;20043;-71
2022/04/27 11:03:39;;;;;;;7.95;2.72;;;;;;;;;;5069787;28;20024;-72
2022/04/27 11:06:10;;;;;;;7.38;2.78;;;;;;;;;;5070057;28;20031;-72
2022/04/27 11:08:36;;;;;;;7.93;2.83;;;;;;;;;;5069891;28;20172;-70
2022/04/27 11:11:07;;;;;;;7.30;3.00;;;;;;;;;;5069768;28;20209;-73
2022/04/27 11:13:37;;;;;;;8.38;3.47;;;;;;;;;;5069622;28;20032;-72
2022/04/27 11:16:13;;;;;;;9.13;2.67;;;;;;;;;;5070150;28;20032;-72
2022/04/27 11:18:56;;;;;;;9.15;2.83;;;;;;;;;;5069578;28;20085;-70
2022/04/27 11:21:26;;;;;;;10.68;3.00;;;;;;;;;;5069914;28;20059;-72
2022/04/27 11:23:53;;;;;;;8.20;3.03;;;;;;;;;;5069560;28;20052;-72
2022/04/27 11:26:19;;;;;;;7.60;2.60;;;;;;;;;;5069872;28;20036;-72
2022/04/27 11:28:48;;;;;;;10.45;3.20;;;;;;;;;;5069365;28;20453;-72
2022/04/27 11:31:15;;;;;;;8.15;2.70;;;;;;;;;;5069327;28;20029;-71
2022/04/27 11:33:41;;;;;;;8.18;3.20;;;;;;;;;;5069539;28;20058;-74
2022/04/27 11:36:19;;;;;;;10.05;3.10;;;;;;;;;;5069646;28;20053;-70
2022/04/27 11:38:45;;;;;;;12.18;3.25;;;;;;;;;;5069468;28;20396;-74
2022/04/27 11:41:19;;;;;;;6.63;2.80;;;;;;;;;;5069065;28;20093;-72
2022/04/27 11:43:46;;;;;;;7.30;2.83;;;;;;;;;;5069190;28;20111;-73
2022/04/27 11:46:12;;;;;;;7.50;2.63;;;;;;;;;;5073560;28;20035;-74
2022/04/27 11:48:38;;;;;;;8.73;3.05;;;;;;;;;;5073073;28;20033;-70
2022/04/27 11:51:06;;;;;;;11.02;2.85;;;;;;;;;;5073379;28;20029;-72
2022/04/27 11:53:54;;;;;;;11.48;2.85;;;;;;;;;;5073352;28;20054;-71
2022/04/27 11:56:19;;;;;;;10.07;2.85;;;;;;;;;;5073496;28;20055;-74
2022/04/27 11:58:46;;;;;;;10.65;2.72;;;;;;;;;;5073186;28;20516;-74
2022/04/27 12:01:20;;;;;;;7.05;2.67;;;;;;;;;;5072883;28;20031;-72
2022/04/27 12:03:46;;;;;;;23.33;3.47;;;;;;;;;;5072760;28;20119;-70
2022/04/27 12:06:24;;;;;;;9.88;2.90;;;;;;;;;;5073313;28;20127;-72
2022/04/27 12:08:50;;;;;;;7.32;2.83;;;;;;;;;;5072899;28;20036;-71
2022/04/27 12:11:25;;;;;;;7.32;2.67;;;;;;;;;;5073010;28;20021;-72
2022/04/27 12:13:56;;;;;;;9.68;2.75;;;;;;;;;;5072884;28;20031;-70
2022/04/27 12:16:28;;;;;;;12.57;3.10;;;;;;;;;;5073310;28;20052;-72
2022/04/27 12:18:54;;;;;;;11.57;2.70;;;;;;;;;;5072582;28;20028;-73
2022/04/27 12:21:26;;;;;;;9.65;3.00;;;;;;;;;;5072650;28;20020;-75
2022/04/27 12:23:56;;;;;;;7.38;3.00;;;;;;;;;;5072336;28;20020;-71
2022/04/27 12:26:24;;;;;;;15.10;3.25;;;;;;;;;;5073132;28;20020;-73
2022/04/27 12:28:50;;;;;;;10.38;3.00;;;;;;;;;;5072768;28;20017;-70
2022/04/27 12:31:19;;;;;;;8.82;2.90;;;;;;;;;;5072536;28;20601;-71
2022/04/27 12:33:48;;;;;;;9.15;3.13;;;;;;;;;;5072531;28;20325;-70
2022/04/27 12:39:03;;;;;;;5.78;2.63;;;;;;;;;;5072689;28;20047;-70
2022/04/27 12:41:41;;;;;;;11.88;3.08;;;;;;;;;;5072040;28;20036;-73
2022/04/27 12:44:15;;;;;;;8.63;2.72;;;;;;;;;;5072521;28;20300;-72
2022/04/27 12:47:00;;;;;;;9.57;3.10;;;;;;;;;;5072511;28;20104;-70
2022/04/27 12:49:36;;;;;;;9.68;3.00;;;;;;;;;;5072025;28;20024;-74
2022/04/27 12:52:34;;;;;;;10.10;3.05;;;;;;;;;;5072129;28;20113;-71
2022/04/27 12:55:12;;;;;;;7.63;2.63;;;;;;;;;;5071730;28;20502;-70
2022/04/27 12:57:46;;;;;;;8.88;2.67;;;;;;;;;;5071508;28;20028;-70
2022/04/27 13:00:14;;;;;;;9.48;3.10;;;;;;;;;;5071834;28;20029;-72
2022/04/27 13:02:40;;;;;;;13.75;3.17;;;;;;;;;;5072100;28;20019;-72
2022/04/27 13:05:08;;;;;;;10.25;3.25;;;;;;;;;;5072367;28;20035;-70
2022/04/27 13:07:34;;;;;;;10.02;3.15;;;;;;;;;;5072035;28;20020;-72
2022/04/27 13:12:44;;;;;;;8.65;2.95;;;;;;;;;;5071834;28;20043;-73
2022/04/27 13:15:11;;;;;;;10.50;3.35;;;;;;;;;;5071668;28;20040;-70
2022/04/27 13:17:37;;;;;;;8.90;3.28;;;;;;;;;;5072360;28;20031;-69
2022/04/27 13:20:04;;;;;;;12.05;3.08;;;;;;;;;;5071666;28;20033;-70
2022/04/27 13:22:30;;;;;;;11.55;2.92;;;;;;;;;;5071698;28;20040;-72
2022/04/27 13:24:56;;;;;;;10.55;3.28;;;;;;;;;;5071567;28;20032;-70
2022/04/27 13:27:24;;;;;;;10.38;3.20;;;;;;;;;;5071572;28;20488;-73
2022/04/27 13:29:50;;;;;;;10.82;3.53;;;;;;;;;;5053078;28;20036;-73
2022/04/27 13:32:16;;;;;;;11.43;3.35;;;;;;;;;;5071311;28;20028;-73
2022/04/27 13:34:41;;;;;;;8.38;3.25;;;;;;;;;;5071638;28;20504;-70
2022/04/27 13:37:07;;;;;;;9.25;2.92;;;;;;;;;;5071450;28;20078;-72
2022/04/27 13:39:33;;;;;;;8.85;3.80;;;;;;;;;;5071239;28;20029;-71
2022/04/27 13:41:59;;;;;;;12.77;3.67;;;;;;;;;;5071006;28;20080;-70
2022/04/27 13:44:25;;;;;;;13.15;3.95;;;;;;;;;;5070630;28;20083;-72
2022/04/27 13:46:51;;;;;;;9.45;2.90;;;;;;;;;;5071107;28;20029;-72
2022/04/27 13:49:19;;;;;;;12.05;3.00;;;;;;;;;;5070924;28;20048;-72
2022/04/27 13:51:45;;;;;;;11.50;3.38;;;;;;;;;;5070925;28;20020;-70
2022/04/27 13:54:13;;;;;;;8.48;3.13;;;;;;;;;;5071092;28;20048;-71
2022/04/27 13:56:39;;;;;;;12.05;3.30;;;;;;;;;;5071157;28;20025;-70
2022/04/27 13:59:04;;;;;;;9.43;3.10;;;;;;;;;;5070735;28;20031;-73
2022/04/27 14:01:30;;;;;;;7.18;3.05;;;;;;;;;;5071083;28;20016;-70
2022/04/27 14:03:56;;;;;;;10.18;3.35;;;;;;;;;;5070541;28;20028;-70
2022/04/27 14:06:22;;;;;;;9.98;2.88;;;;;;;;;;5071055;28;20055;-75
2022/04/27 14:08:49;;;;;;;5.63;2.90;;;;;;;;;;5070483;28;20099;-74
2022/04/27 14:13:59;;;;;;;8.13;3.05;;;;;;;;;;5071001;28;20059;-69
2022/04/27 14:19:08;;;;;;;12.23;2.97;;;;;;;;;;5070345;28;20027;-69
2022/04/27 14:21:34;;;;;;;13.63;2.88;;;;;;;;;;5070332;28;20403;-72
2022/04/27 14:24:00;;;;;;;9.02;2.83;;;;;;;;;;5070437;28;20032;-74
2022/04/27 14:26:26;;;;;;;10.95;3.35;;;;;;;;;;5070456;28;20035;-73
2022/04/27 14:28:51;;;;;;;14.15;3.13;;;;;;;;;;5070600;28;20032;-71
2022/04/27 14:31:17;;;;;;;10.95;2.95;;;;;;;;;;5070058;28;20028;-75
2022/04/27 14:33:43;;;;;;;11.90;3.08;;;;;;;;;;5070382;28;20129;-73
2022/04/27 14:36:09;;;;;;;8.75;2.80;;;;;;;;;;5052105;28;20091;-70
2022/04/27 14:38:36;;;;;;;6.80;2.83;;;;;;;;;;5070557;28;20474;-70
2022/04/27 14:41:01;;;;;;;8.85;2.70;;;;;;;;;;5069749;28;20037;-72
2022/04/27 14:43:29;;;;;;;8.10;2.90;;;;;;;;;;5070177;28;20025;-74
2022/04/27 14:45:55;;;;;;;7.32;2.88;;;;;;;;;;5069895;28;20492;-72
2022/04/27 14:48:22;;;;;;;7.15;2.75;;;;;;;;;;5070079;28;20511;-73
2022/04/27 14:50:48;;;;;;;10.73;2.85;;;;;;;;;;5069833;28;20025;-71
2022/04/27 14:53:14;;;;;;;9.13;2.80;;;;;;;;;;5069754;28;20509;-73
2022/04/27 14:55:41;;;;;;;11.18;2.55;;;;;;;;;;5069701;28;20476;-71
2022/04/27 14:58:06;;;;;;;7.63;2.80;;;;;;;;;;5069914;28;20063;-72
2022/04/27 15:00:33;;;;;;;9.90;2.65;;;;;;;;;;5069527;28;20056;-72
2022/04/27 15:02:59;;;;;;;8.60;3.00;;;;;;;;;;5069742;28;20107;-72
2022/04/27 15:05:25;;;;;;;10.00;2.97;;;;;;;;;;5069787;28;20112;-72
2022/04/27 15:07:51;;;;;;;13.85;3.10;;;;;;;;;;5070138;28;20035;-73
2022/04/27 15:10:17;;;;;;;9.00;3.13;;;;;;;;;;5069472;28;20036;-70
2022/04/27 15:12:43;;;;;;;11.57;2.78;;;;;;;;;;5069502;28;20111;-70
2022/04/27 15:15:09;;;;;;;8.75;2.65;;;;;;;;;;5069677;28;20066;-70